sensor_id;sensor_type;location;lat;lon;timestamp;P1;durP1;ratioP1;P2;durP2;ratioP2
66012;SDS011;52783;50.502;8.190;2023-04-01T00:01:18;6.43;;;1.35;;
66012;SDS011;52783;50.502;8.190;2023-04-01T00:03:44;5.38;;;1.73;;
66012;SDS011;52783;50.502;8.190;2023-04-01T00:06:14;5.82;;;1.58;;
66012;SDS011;52783;50.502;8.190;2023-04-01T00:08:41;6.03;;;1.80;;
66012;SDS011;52783;50.502;8.190;2023-04-01T00:11:07;10.18;;;2.42;;
66012;SDS011;52783;50.502;8.190;2023-04-01T00:13:32;7.28;;;1.73;;
66012;SDS011;52783;50.502;8.190;2023-04-01T00:15:58;7.47;;;2.03;;
66012;SDS011;52783;50.502;8.190;2023-04-01T00:18:24;5.45;;;1.50;;
66012;SDS011;52783;50.502;8.190;2023-04-01T00:20:50;6.75;;;2.00;;
66012;SDS011;52783;50.502;8.190;2023-04-01T00:23:17;3.85;;;1.38;;
66012;SDS011;52783;50.502;8.190;2023-04-01T00:25:44;8.27;;;1.92;;
66012;SDS011;52783;50.502;8.190;2023-04-01T00:28:12;7.18;;;1.90;;
66012;SDS011;52783;50.502;8.190;2023-04-01T00:30:40;5.70;;;1.60;;
66012;SDS011;52783;50.502;8.190;2023-04-01T00:33:06;3.33;;;1.48;;
66012;SDS011;52783;50.502;8.190;2023-04-01T00:35:32;6.68;;;1.70;;
66012;SDS011;52783;50.502;8.190;2023-04-01T00:37:58;7.57;;;2.30;;
66012;SDS011;52783;50.502;8.190;2023-04-01T00:40:28;7.38;;;1.58;;
66012;SDS011;52783;50.502;8.190;2023-04-01T00:42:58;6.07;;;1.40;;
66012;SDS011;52783;50.502;8.190;2023-04-01T00:45:37;3.00;;;1.00;;
66012;SDS011;52783;50.502;8.190;2023-04-01T00:48:13;2.33;;;1.20;;
66012;SDS011;52783;50.502;8.190;2023-04-01T00:51:09;7.22;;;2.05;;
66012;SDS011;52783;50.502;8.190;2023-04-01T00:53:40;4.30;;;1.38;;
66012;SDS011;52783;50.502;8.190;2023-04-01T00:56:13;7.03;;;1.98;;
66012;SDS011;52783;50.502;8.190;2023-04-01T00:58:43;5.97;;;0.95;;
66012;SDS011;52783;50.502;8.190;2023-04-01T01:01:12;2.80;;;1.50;;
66012;SDS011;52783;50.502;8.190;2023-04-01T01:03:38;4.05;;;1.27;;
66012;SDS011;52783;50.502;8.190;2023-04-01T01:06:07;5.93;;;1.20;;
66012;SDS011;52783;50.502;8.190;2023-04-01T01:23:18;4.65;;;1.15;;
66012;SDS011;52783;50.502;8.190;2023-04-01T01:26:09;3.50;;;1.10;;
66012;SDS011;52783;50.502;8.190;2023-04-01T01:34:19;5.30;;;1.40;;
66012;SDS011;52783;50.502;8.190;2023-04-01T01:37:08;3.80;;;1.15;;
66012;SDS011;52783;50.502;8.190;2023-04-01T01:39:39;3.88;;;1.05;;
66012;SDS011;52783;50.502;8.190;2023-04-01T01:42:08;4.18;;;1.50;;
66012;SDS011;52783;50.502;8.190;2023-04-01T01:44:38;4.25;;;1.23;;
66012;SDS011;52783;50.502;8.190;2023-04-01T01:47:06;2.47;;;1.10;;
66012;SDS011;52783;50.502;8.190;2023-04-01T01:49:33;6.72;;;1.55;;
66012;SDS011;52783;50.502;8.190;2023-04-01T01:52:00;2.75;;;1.20;;
66012;SDS011;52783;50.502;8.190;2023-04-01T01:54:26;6.93;;;1.55;;
66012;SDS011;52783;50.502;8.190;2023-04-01T01:56:52;5.72;;;1.63;;
66012;SDS011;52783;50.502;8.190;2023-04-01T01:59:29;3.72;;;1.00;;
66012;SDS011;52783;50.502;8.190;2023-04-01T02:01:57;2.80;;;1.17;;
66012;SDS011;52783;50.502;8.190;2023-04-01T02:04:24;1.98;;;0.70;;
66012;SDS011;52783;50.502;8.190;2023-04-01T02:06:59;3.75;;;0.98;;
66012;SDS011;52783;50.502;8.190;2023-04-01T02:09:28;3.47;;;1.20;;
66012;SDS011;52783;50.502;8.190;2023-04-01T02:12:02;5.03;;;1.05;;
66012;SDS011;52783;50.502;8.190;2023-04-01T02:14:35;4.15;;;1.00;;
66012;SDS011;52783;50.502;8.190;2023-04-01T02:17:07;6.13;;;1.30;;
66012;SDS011;52783;50.502;8.190;2023-04-01T02:20:20;2.47;;;1.17;;
66012;SDS011;52783;50.502;8.190;2023-04-01T02:22:54;2.05;;;1.30;;
66012;SDS011;52783;50.502;8.190;2023-04-01T02:25:25;4.32;;;1.67;;
66012;SDS011;52783;50.502;8.190;2023-04-01T02:27:53;3.55;;;1.65;;
66012;SDS011;52783;50.502;8.190;2023-04-01T02:30:21;6.88;;;1.30;;
66012;SDS011;52783;50.502;8.190;2023-04-01T02:32:48;7.40;;;1.60;;
66012;SDS011;52783;50.502;8.190;2023-04-01T02:35:14;4.18;;;1.23;;
66012;SDS011;52783;50.502;8.190;2023-04-01T02:37:42;1.08;;;0.80;;
66012;SDS011;52783;50.502;8.190;2023-04-01T02:40:10;3.63;;;1.08;;
66012;SDS011;52783;50.502;8.190;2023-04-01T02:42:38;4.18;;;1.17;;
66012;SDS011;52783;50.502;8.190;2023-04-01T02:45:04;3.58;;;1.65;;
66012;SDS011;52783;50.502;8.190;2023-04-01T02:47:30;2.80;;;1.00;;
66012;SDS011;52783;50.502;8.190;2023-04-01T02:49:56;4.38;;;1.02;;
66012;SDS011;52783;50.502;8.190;2023-04-01T02:52:29;3.63;;;1.20;;
66012;SDS011;52783;50.502;8.190;2023-04-01T02:54:55;7.72;;;1.65;;
66012;SDS011;52783;50.502;8.190;2023-04-01T02:57:22;5.07;;;1.50;;
66012;SDS011;52783;50.502;8.190;2023-04-01T02:59:47;2.40;;;1.20;;
66012;SDS011;52783;50.502;8.190;2023-04-01T03:02:13;5.18;;;1.60;;
66012;SDS011;52783;50.502;8.190;2023-04-01T03:04:39;3.90;;;1.27;;
66012;SDS011;52783;50.502;8.190;2023-04-01T03:07:05;7.30;;;1.20;;
66012;SDS011;52783;50.502;8.190;2023-04-01T03:09:30;2.88;;;1.08;;
66012;SDS011;52783;50.502;8.190;2023-04-01T03:11:56;2.92;;;1.17;;
66012;SDS011;52783;50.502;8.190;2023-04-01T03:14:21;6.47;;;1.58;;
66012;SDS011;52783;50.502;8.190;2023-04-01T03:16:47;4.65;;;1.45;;
66012;SDS011;52783;50.502;8.190;2023-04-01T03:19:13;2.42;;;1.15;;
66012;SDS011;52783;50.502;8.190;2023-04-01T03:21:38;5.68;;;1.15;;
66012;SDS011;52783;50.502;8.190;2023-04-01T03:24:04;4.50;;;1.23;;
66012;SDS011;52783;50.502;8.190;2023-04-01T03:26:30;5.78;;;1.20;;
66012;SDS011;52783;50.502;8.190;2023-04-01T03:28:55;4.38;;;1.17;;
66012;SDS011;52783;50.502;8.190;2023-04-01T03:31:21;5.35;;;1.52;;
66012;SDS011;52783;50.502;8.190;2023-04-01T03:33:47;3.00;;;0.73;;
66012;SDS011;52783;50.502;8.190;2023-04-01T03:36:13;5.15;;;1.00;;
66012;SDS011;52783;50.502;8.190;2023-04-01T03:38:41;7.85;;;1.60;;
66012;SDS011;52783;50.502;8.190;2023-04-01T03:41:11;4.60;;;1.45;;
66012;SDS011;52783;50.502;8.190;2023-04-01T03:43:40;5.03;;;1.45;;
66012;SDS011;52783;50.502;8.190;2023-04-01T03:46:05;1.48;;;0.80;;
66012;SDS011;52783;50.502;8.190;2023-04-01T03:48:31;5.35;;;1.25;;
66012;SDS011;52783;50.502;8.190;2023-04-01T03:50:56;5.43;;;1.23;;
66012;SDS011;52783;50.502;8.190;2023-04-01T03:53:22;2.78;;;0.93;;
66012;SDS011;52783;50.502;8.190;2023-04-01T03:55:47;3.40;;;1.40;;
66012;SDS011;52783;50.502;8.190;2023-04-01T03:58:13;3.78;;;1.10;;
66012;SDS011;52783;50.502;8.190;2023-04-01T04:00:39;4.28;;;1.10;;
66012;SDS011;52783;50.502;8.190;2023-04-01T04:03:05;2.25;;;0.95;;
66012;SDS011;52783;50.502;8.190;2023-04-01T04:05:31;2.25;;;1.02;;
66012;SDS011;52783;50.502;8.190;2023-04-01T04:07:57;5.10;;;0.95;;
66012;SDS011;52783;50.502;8.190;2023-04-01T04:10:23;4.88;;;1.17;;
66012;SDS011;52783;50.502;8.190;2023-04-01T04:12:50;2.80;;;0.85;;
66012;SDS011;52783;50.502;8.190;2023-04-01T04:15:16;2.92;;;0.93;;
66012;SDS011;52783;50.502;8.190;2023-04-01T04:17:42;2.50;;;0.95;;
66012;SDS011;52783;50.502;8.190;2023-04-01T04:20:08;1.15;;;0.77;;
66012;SDS011;52783;50.502;8.190;2023-04-01T04:22:34;2.72;;;1.20;;
66012;SDS011;52783;50.502;8.190;2023-04-01T04:24:59;2.97;;;1.02;;
66012;SDS011;52783;50.502;8.190;2023-04-01T04:27:25;6.35;;;1.50;;
66012;SDS011;52783;50.502;8.190;2023-04-01T04:29:50;2.70;;;1.02;;
66012;SDS011;52783;50.502;8.190;2023-04-01T04:32:16;3.60;;;0.88;;
66012;SDS011;52783;50.502;8.190;2023-04-01T04:34:42;1.05;;;0.65;;
66012;SDS011;52783;50.502;8.190;2023-04-01T04:37:07;2.22;;;1.35;;
66012;SDS011;52783;50.502;8.190;2023-04-01T04:39:32;4.93;;;1.02;;
66012;SDS011;52783;50.502;8.190;2023-04-01T04:41:58;4.50;;;1.50;;
66012;SDS011;52783;50.502;8.190;2023-04-01T04:44:24;3.80;;;0.80;;
66012;SDS011;52783;50.502;8.190;2023-04-01T04:46:50;2.10;;;1.00;;
66012;SDS011;52783;50.502;8.190;2023-04-01T04:49:15;2.40;;;0.80;;
66012;SDS011;52783;50.502;8.190;2023-04-01T04:51:41;1.40;;;1.00;;
66012;SDS011;52783;50.502;8.190;2023-04-01T04:54:06;4.47;;;0.80;;
66012;SDS011;52783;50.502;8.190;2023-04-01T04:56:32;5.00;;;1.10;;
66012;SDS011;52783;50.502;8.190;2023-04-01T04:58:58;4.15;;;1.08;;
66012;SDS011;52783;50.502;8.190;2023-04-01T05:01:24;2.40;;;0.90;;
66012;SDS011;52783;50.502;8.190;2023-04-01T05:03:50;2.53;;;0.85;;
66012;SDS011;52783;50.502;8.190;2023-04-01T05:06:16;2.08;;;0.98;;
66012;SDS011;52783;50.502;8.190;2023-04-01T05:08:43;2.92;;;0.80;;
66012;SDS011;52783;50.502;8.190;2023-04-01T05:11:11;4.85;;;1.10;;
66012;SDS011;52783;50.502;8.190;2023-04-01T05:13:40;3.53;;;1.17;;
66012;SDS011;52783;50.502;8.190;2023-04-01T05:16:09;1.23;;;0.73;;
66012;SDS011;52783;50.502;8.190;2023-04-01T05:18:35;2.20;;;0.90;;
66012;SDS011;52783;50.502;8.190;2023-04-01T05:21:01;3.35;;;1.13;;
66012;SDS011;52783;50.502;8.190;2023-04-01T05:23:27;2.40;;;0.95;;
66012;SDS011;52783;50.502;8.190;2023-04-01T05:25:52;1.65;;;0.75;;
66012;SDS011;52783;50.502;8.190;2023-04-01T05:28:18;5.10;;;1.00;;
66012;SDS011;52783;50.502;8.190;2023-04-01T05:30:45;2.20;;;1.00;;
66012;SDS011;52783;50.502;8.190;2023-04-01T05:33:11;3.63;;;1.00;;
66012;SDS011;52783;50.502;8.190;2023-04-01T05:35:37;4.80;;;1.15;;
66012;SDS011;52783;50.502;8.190;2023-04-01T05:38:04;3.83;;;0.95;;
66012;SDS011;52783;50.502;8.190;2023-04-01T05:40:30;2.25;;;0.98;;
66012;SDS011;52783;50.502;8.190;2023-04-01T05:42:56;3.35;;;0.90;;
66012;SDS011;52783;50.502;8.190;2023-04-01T05:45:22;3.05;;;0.98;;
66012;SDS011;52783;50.502;8.190;2023-04-01T05:47:48;3.63;;;1.25;;
66012;SDS011;52783;50.502;8.190;2023-04-01T05:50:13;2.05;;;1.02;;
66012;SDS011;52783;50.502;8.190;2023-04-01T05:52:40;1.35;;;0.80;;
66012;SDS011;52783;50.502;8.190;2023-04-01T05:55:05;7.10;;;2.25;;
66012;SDS011;52783;50.502;8.190;2023-04-01T05:57:31;1.52;;;0.98;;
66012;SDS011;52783;50.502;8.190;2023-04-01T05:59:57;7.78;;;1.45;;
66012;SDS011;52783;50.502;8.190;2023-04-01T06:02:23;3.63;;;1.30;;
66012;SDS011;52783;50.502;8.190;2023-04-01T06:04:48;0.80;;;0.65;;
66012;SDS011;52783;50.502;8.190;2023-04-01T06:07:17;1.70;;;1.10;;
66012;SDS011;52783;50.502;8.190;2023-04-01T06:09:43;1.35;;;0.50;;
66012;SDS011;52783;50.502;8.190;2023-04-01T06:26:03;2.75;;;0.80;;
66012;SDS011;52783;50.502;8.190;2023-04-01T06:29:02;1.38;;;0.98;;
66012;SDS011;52783;50.502;8.190;2023-04-01T06:31:54;0.98;;;0.80;;
66012;SDS011;52783;50.502;8.190;2023-04-01T06:37:29;3.05;;;0.88;;
66012;SDS011;52783;50.502;8.190;2023-04-01T06:46:00;0.90;;;0.80;;
66012;SDS011;52783;50.502;8.190;2023-04-01T06:54:03;1.92;;;1.15;;
66012;SDS011;52783;50.502;8.190;2023-04-01T06:56:33;2.70;;;1.02;;
66012;SDS011;52783;50.502;8.190;2023-04-01T06:59:05;1.45;;;1.10;;
66012;SDS011;52783;50.502;8.190;2023-04-01T07:01:42;2.25;;;1.10;;
66012;SDS011;52783;50.502;8.190;2023-04-01T07:04:29;1.10;;;0.68;;
66012;SDS011;52783;50.502;8.190;2023-04-01T07:06:59;2.28;;;0.88;;
66012;SDS011;52783;50.502;8.190;2023-04-01T07:12:00;1.15;;;0.93;;
66012;SDS011;52783;50.502;8.190;2023-04-01T07:14:32;7.07;;;1.10;;
66012;SDS011;52783;50.502;8.190;2023-04-01T07:20:03;1.10;;;1.00;;
66012;SDS011;52783;50.502;8.190;2023-04-01T07:22:43;2.17;;;1.00;;
66012;SDS011;52783;50.502;8.190;2023-04-01T07:25:16;1.48;;;0.98;;
66012;SDS011;52783;50.502;8.190;2023-04-01T07:27:50;0.60;;;0.60;;
66012;SDS011;52783;50.502;8.190;2023-04-01T07:30:18;1.42;;;1.00;;
66012;SDS011;52783;50.502;8.190;2023-04-01T07:35:50;2.00;;;0.73;;
66012;SDS011;52783;50.502;8.190;2023-04-01T07:43:46;1.55;;;0.95;;
66012;SDS011;52783;50.502;8.190;2023-04-01T07:48:58;0.43;;;0.43;;
66012;SDS011;52783;50.502;8.190;2023-04-01T07:51:42;3.45;;;2.40;;
66012;SDS011;52783;50.502;8.190;2023-04-01T07:54:26;4.07;;;2.72;;
66012;SDS011;52783;50.502;8.190;2023-04-01T07:57:21;3.67;;;1.30;;
66012;SDS011;52783;50.502;8.190;2023-04-01T08:05:29;1.33;;;0.80;;
66012;SDS011;52783;50.502;8.190;2023-04-01T08:11:17;0.85;;;0.68;;
66012;SDS011;52783;50.502;8.190;2023-04-01T08:25:22;0.82;;;0.82;;
66012;SDS011;52783;50.502;8.190;2023-04-01T08:27:55;0.70;;;0.70;;
66012;SDS011;52783;50.502;8.190;2023-04-01T08:30:41;2.00;;;1.50;;
66012;SDS011;52783;50.502;8.190;2023-04-01T08:33:14;1.20;;;1.10;;
66012;SDS011;52783;50.502;8.190;2023-04-01T08:38:21;1.98;;;1.50;;
66012;SDS011;52783;50.502;8.190;2023-04-01T08:46:16;5.25;;;0.70;;
66012;SDS011;52783;50.502;8.190;2023-04-01T08:49:07;2.17;;;0.80;;
66012;SDS011;52783;50.502;8.190;2023-04-01T09:03:21;1.60;;;0.52;;
66012;SDS011;52783;50.502;8.190;2023-04-01T09:08:43;0.68;;;0.60;;
66012;SDS011;52783;50.502;8.190;2023-04-01T09:14:49;2.05;;;0.40;;
66012;SDS011;52783;50.502;8.190;2023-04-01T09:17:28;1.55;;;0.70;;
66012;SDS011;52783;50.502;8.190;2023-04-01T09:22:50;0.75;;;0.55;;
66012;SDS011;52783;50.502;8.190;2023-04-01T09:25:26;1.85;;;0.88;;
66012;SDS011;52783;50.502;8.190;2023-04-01T09:28:28;1.50;;;0.50;;
66012;SDS011;52783;50.502;8.190;2023-04-01T09:36:45;0.32;;;0.32;;
66012;SDS011;52783;50.502;8.190;2023-04-01T09:42:33;0.30;;;0.30;;
66012;SDS011;52783;50.502;8.190;2023-04-01T09:45:11;1.45;;;0.60;;
66012;SDS011;52783;50.502;8.190;2023-04-01T09:48:14;0.95;;;0.70;;
66012;SDS011;52783;50.502;8.190;2023-04-01T09:51:06;1.67;;;0.75;;
66012;SDS011;52783;50.502;8.190;2023-04-01T09:54:10;0.70;;;0.70;;
66012;SDS011;52783;50.502;8.190;2023-04-01T10:13:40;2.45;;;0.75;;
66012;SDS011;52783;50.502;8.190;2023-04-01T10:25:05;1.73;;;0.80;;
66012;SDS011;52783;50.502;8.190;2023-04-01T10:30:35;1.33;;;0.77;;
66012;SDS011;52783;50.502;8.190;2023-04-01T10:39:33;0.60;;;0.60;;
66012;SDS011;52783;50.502;8.190;2023-04-01T10:48:18;0.77;;;0.55;;
66012;SDS011;52783;50.502;8.190;2023-04-01T10:51:04;2.35;;;0.88;;
66012;SDS011;52783;50.502;8.190;2023-04-01T10:56:50;1.65;;;0.77;;
66012;SDS011;52783;50.502;8.190;2023-04-01T10:59:45;0.55;;;0.55;;
66012;SDS011;52783;50.502;8.190;2023-04-01T11:06:01;1.13;;;0.82;;
66012;SDS011;52783;50.502;8.190;2023-04-01T11:19:56;1.63;;;0.95;;
66012;SDS011;52783;50.502;8.190;2023-04-01T11:33:34;1.08;;;0.80;;
66012;SDS011;52783;50.502;8.190;2023-04-01T11:39:00;0.70;;;0.70;;
66012;SDS011;52783;50.502;8.190;2023-04-01T11:41:40;0.52;;;0.52;;
66012;SDS011;52783;50.502;8.190;2023-04-01T11:44:27;0.82;;;0.82;;
66012;SDS011;52783;50.502;8.190;2023-04-01T11:49:52;1.00;;;1.00;;
66012;SDS011;52783;50.502;8.190;2023-04-01T11:55:47;1.45;;;1.10;;
66012;SDS011;52783;50.502;8.190;2023-04-01T12:01:33;1.77;;;1.17;;
66012;SDS011;52783;50.502;8.190;2023-04-01T12:14:40;1.45;;;1.35;;
66012;SDS011;52783;50.502;8.190;2023-04-01T12:17:26;1.20;;;1.20;;
66012;SDS011;52783;50.502;8.190;2023-04-01T12:28:25;1.05;;;1.00;;
66012;SDS011;52783;50.502;8.190;2023-04-01T12:45:18;1.95;;;1.42;;
66012;SDS011;52783;50.502;8.190;2023-04-01T12:48:08;1.52;;;1.42;;
66012;SDS011;52783;50.502;8.190;2023-04-01T12:57:00;1.30;;;1.20;;
66012;SDS011;52783;50.502;8.190;2023-04-01T12:59:35;1.20;;;1.20;;
66012;SDS011;52783;50.502;8.190;2023-04-01T13:07:51;1.48;;;1.35;;
66012;SDS011;52783;50.502;8.190;2023-04-01T13:10:41;1.48;;;1.10;;
66012;SDS011;52783;50.502;8.190;2023-04-01T13:25:03;0.95;;;0.90;;
66012;SDS011;52783;50.502;8.190;2023-04-01T13:27:45;1.77;;;0.73;;
66012;SDS011;52783;50.502;8.190;2023-04-01T13:30:37;0.80;;;0.80;;
66012;SDS011;52783;50.502;8.190;2023-04-01T13:38:54;1.92;;;1.00;;
66012;SDS011;52783;50.502;8.190;2023-04-01T13:44:34;1.95;;;1.10;;
66012;SDS011;52783;50.502;8.190;2023-04-01T13:47:12;1.67;;;1.35;;
66012;SDS011;52783;50.502;8.190;2023-04-01T14:01:40;1.00;;;0.90;;
66012;SDS011;52783;50.502;8.190;2023-04-01T14:04:22;1.33;;;1.10;;
66012;SDS011;52783;50.502;8.190;2023-04-01T14:09:52;2.22;;;1.00;;
66012;SDS011;52783;50.502;8.190;2023-04-01T14:18:11;0.98;;;0.80;;
66012;SDS011;52783;50.502;8.190;2023-04-01T14:29:23;2.30;;;0.67;;
66012;SDS011;52783;50.502;8.190;2023-04-01T14:32:24;0.25;;;0.25;;
66012;SDS011;52783;50.502;8.190;2023-04-01T14:38:21;0.55;;;0.55;;
66012;SDS011;52783;50.502;8.190;2023-04-01T14:41:02;0.90;;;0.45;;
66012;SDS011;52783;50.502;8.190;2023-04-01T14:43:44;0.40;;;0.40;;
66012;SDS011;52783;50.502;8.190;2023-04-01T14:46:23;0.68;;;0.68;;
66012;SDS011;52783;50.502;8.190;2023-04-01T14:49:22;0.50;;;0.50;;
66012;SDS011;52783;50.502;8.190;2023-04-01T14:52:13;0.88;;;0.88;;
66012;SDS011;52783;50.502;8.190;2023-04-01T14:54:46;1.88;;;1.25;;
66012;SDS011;52783;50.502;8.190;2023-04-01T15:02:36;1.92;;;1.33;;
66012;SDS011;52783;50.502;8.190;2023-04-01T15:08:01;1.60;;;1.50;;
66012;SDS011;52783;50.502;8.190;2023-04-01T15:10:59;1.75;;;1.40;;
66012;SDS011;52783;50.502;8.190;2023-04-01T15:19:05;1.05;;;1.05;;
66012;SDS011;52783;50.502;8.190;2023-04-01T15:31:59;0.75;;;0.68;;
66012;SDS011;52783;50.502;8.190;2023-04-01T15:34:54;2.40;;;0.93;;
66012;SDS011;52783;50.502;8.190;2023-04-01T15:38:23;1.10;;;0.85;;
66012;SDS011;52783;50.502;8.190;2023-04-01T15:46:39;1.33;;;0.82;;
66012;SDS011;52783;50.502;8.190;2023-04-01T15:54:54;1.80;;;1.38;;
66012;SDS011;52783;50.502;8.190;2023-04-01T16:05:53;1.40;;;1.10;;
66012;SDS011;52783;50.502;8.190;2023-04-01T16:11:18;1.00;;;1.00;;
66012;SDS011;52783;50.502;8.190;2023-04-01T16:14:13;0.95;;;0.95;;
66012;SDS011;52783;50.502;8.190;2023-04-01T16:17:15;1.92;;;1.00;;
66012;SDS011;52783;50.502;8.190;2023-04-01T16:19:46;2.95;;;0.85;;
66012;SDS011;52783;50.502;8.190;2023-04-01T16:22:26;1.13;;;1.13;;
66012;SDS011;52783;50.502;8.190;2023-04-01T16:31:07;1.27;;;1.08;;
66012;SDS011;52783;50.502;8.190;2023-04-01T16:36:47;1.77;;;1.20;;
66012;SDS011;52783;50.502;8.190;2023-04-01T16:42:13;1.77;;;1.20;;
66012;SDS011;52783;50.502;8.190;2023-04-01T16:47:20;1.65;;;0.90;;
66012;SDS011;52783;50.502;8.190;2023-04-01T16:49:59;1.85;;;0.90;;
66012;SDS011;52783;50.502;8.190;2023-04-01T16:55:19;1.50;;;1.40;;
66012;SDS011;52783;50.502;8.190;2023-04-01T16:57:50;1.92;;;1.40;;
66012;SDS011;52783;50.502;8.190;2023-04-01T17:00:25;4.35;;;1.20;;
66012;SDS011;52783;50.502;8.190;2023-04-01T17:05:38;0.90;;;0.90;;
66012;SDS011;52783;50.502;8.190;2023-04-01T17:11:27;1.05;;;0.95;;
66012;SDS011;52783;50.502;8.190;2023-04-01T17:14:28;2.95;;;2.25;;
66012;SDS011;52783;50.502;8.190;2023-04-01T17:17:08;1.60;;;1.25;;
66012;SDS011;52783;50.502;8.190;2023-04-01T17:23:48;1.67;;;1.58;;
66012;SDS011;52783;50.502;8.190;2023-04-01T17:26:01;4.32;;;1.65;;
66012;SDS011;52783;50.502;8.190;2023-04-01T17:28:37;1.40;;;1.30;;
66012;SDS011;52783;50.502;8.190;2023-04-01T17:34:04;1.40;;;1.33;;
66012;SDS011;52783;50.502;8.190;2023-04-01T17:36:44;2.13;;;1.23;;
66012;SDS011;52783;50.502;8.190;2023-04-01T17:39:27;1.83;;;1.20;;
66012;SDS011;52783;50.502;8.190;2023-04-01T17:47:15;2.10;;;1.30;;
66012;SDS011;52783;50.502;8.190;2023-04-01T17:50:02;1.20;;;1.20;;
66012;SDS011;52783;50.502;8.190;2023-04-01T17:52:47;4.88;;;2.80;;
66012;SDS011;52783;50.502;8.190;2023-04-01T17:58:18;1.80;;;1.20;;
66012;SDS011;52783;50.502;8.190;2023-04-01T18:01:21;5.57;;;3.80;;
66012;SDS011;52783;50.502;8.190;2023-04-01T18:06:59;3.47;;;2.20;;
66012;SDS011;52783;50.502;8.190;2023-04-01T18:12:36;2.50;;;2.00;;
66012;SDS011;52783;50.502;8.190;2023-04-01T18:21:25;4.18;;;2.70;;
66012;SDS011;52783;50.502;8.190;2023-04-01T18:24:14;7.43;;;5.22;;
66012;SDS011;52783;50.502;8.190;2023-04-01T18:26:50;4.53;;;3.40;;
66012;SDS011;52783;50.502;8.190;2023-04-01T18:29:39;3.08;;;2.78;;
66012;SDS011;52783;50.502;8.190;2023-04-01T18:32:12;3.45;;;2.70;;
66012;SDS011;52783;50.502;8.190;2023-04-01T18:35:02;2.92;;;2.50;;
66012;SDS011;52783;50.502;8.190;2023-04-01T18:38:25;8.05;;;5.15;;
66012;SDS011;52783;50.502;8.190;2023-04-01T18:46:43;4.97;;;3.38;;
66012;SDS011;52783;50.502;8.190;2023-04-01T18:49:16;3.08;;;2.67;;
66012;SDS011;52783;50.502;8.190;2023-04-01T18:51:58;4.43;;;3.95;;
66012;SDS011;52783;50.502;8.190;2023-04-01T18:54:41;3.88;;;3.47;;
66012;SDS011;52783;50.502;8.190;2023-04-01T18:57:15;7.60;;;4.10;;
66012;SDS011;52783;50.502;8.190;2023-04-01T19:00:04;12.27;;;6.85;;
66012;SDS011;52783;50.502;8.190;2023-04-01T19:02:38;6.57;;;4.47;;
66012;SDS011;52783;50.502;8.190;2023-04-01T19:07:47;3.22;;;2.90;;
66012;SDS011;52783;50.502;8.190;2023-04-01T19:15:37;4.32;;;2.10;;
66012;SDS011;52783;50.502;8.190;2023-04-01T19:26:34;7.03;;;5.93;;
66012;SDS011;52783;50.502;8.190;2023-04-01T19:29:31;4.78;;;3.40;;
66012;SDS011;52783;50.502;8.190;2023-04-01T19:35:13;3.00;;;2.80;;
66012;SDS011;52783;50.502;8.190;2023-04-01T19:46:33;6.38;;;3.60;;
66012;SDS011;52783;50.502;8.190;2023-04-01T19:52:12;3.85;;;3.17;;
66012;SDS011;52783;50.502;8.190;2023-04-01T19:54:58;3.42;;;2.60;;
66012;SDS011;52783;50.502;8.190;2023-04-01T19:57:38;2.20;;;2.10;;
66012;SDS011;52783;50.502;8.190;2023-04-01T20:00:31;2.47;;;2.00;;
66012;SDS011;52783;50.502;8.190;2023-04-01T20:08:22;3.55;;;3.25;;
66012;SDS011;52783;50.502;8.190;2023-04-01T20:16:18;3.30;;;2.70;;
66012;SDS011;52783;50.502;8.190;2023-04-01T20:18:55;3.78;;;2.50;;
66012;SDS011;52783;50.502;8.190;2023-04-01T20:21:34;2.35;;;2.15;;
66012;SDS011;52783;50.502;8.190;2023-04-01T20:26:39;2.22;;;2.05;;
66012;SDS011;52783;50.502;8.190;2023-04-01T20:31:37;2.63;;;2.42;;
66012;SDS011;52783;50.502;8.190;2023-04-01T20:34:19;2.85;;;2.55;;
66012;SDS011;52783;50.502;8.190;2023-04-01T20:51:56;2.40;;;2.20;;
66012;SDS011;52783;50.502;8.190;2023-04-01T20:54:31;3.40;;;1.88;;
66012;SDS011;52783;50.502;8.190;2023-04-01T21:02:56;2.35;;;2.15;;
66012;SDS011;52783;50.502;8.190;2023-04-01T21:05:59;2.10;;;2.00;;
66012;SDS011;52783;50.502;8.190;2023-04-01T21:11:38;1.70;;;1.60;;
66012;SDS011;52783;50.502;8.190;2023-04-01T21:17:34;2.17;;;1.98;;
66012;SDS011;52783;50.502;8.190;2023-04-01T21:20:27;7.88;;;2.25;;
66012;SDS011;52783;50.502;8.190;2023-04-01T21:23:29;2.30;;;2.10;;
66012;SDS011;52783;50.502;8.190;2023-04-01T21:26:23;2.67;;;2.20;;
66012;SDS011;52783;50.502;8.190;2023-04-01T21:32:20;3.08;;;2.40;;
66012;SDS011;52783;50.502;8.190;2023-04-01T21:35:19;4.32;;;2.53;;
66012;SDS011;52783;50.502;8.190;2023-04-01T21:58:03;2.15;;;2.05;;
66012;SDS011;52783;50.502;8.190;2023-04-01T22:01:11;5.07;;;2.20;;
66012;SDS011;52783;50.502;8.190;2023-04-01T22:06:46;4.18;;;2.33;;
66012;SDS011;52783;50.502;8.190;2023-04-01T22:09:21;3.47;;;2.40;;
66012;SDS011;52783;50.502;8.190;2023-04-01T22:12:09;4.78;;;2.92;;
66012;SDS011;52783;50.502;8.190;2023-04-01T22:14:46;4.38;;;3.35;;
66012;SDS011;52783;50.502;8.190;2023-04-01T22:17:41;4.72;;;4.07;;
66012;SDS011;52783;50.502;8.190;2023-04-01T22:23:21;4.28;;;3.22;;
66012;SDS011;52783;50.502;8.190;2023-04-01T22:25:56;14.33;;;10.70;;
66012;SDS011;52783;50.502;8.190;2023-04-01T22:28:47;13.25;;;6.88;;
66012;SDS011;52783;50.502;8.190;2023-04-01T22:31:43;9.52;;;6.18;;
66012;SDS011;52783;50.502;8.190;2023-04-01T22:34:21;5.70;;;4.93;;
66012;SDS011;52783;50.502;8.190;2023-04-01T22:37:14;3.60;;;3.28;;
66012;SDS011;52783;50.502;8.190;2023-04-01T22:39:53;4.72;;;2.80;;
66012;SDS011;52783;50.502;8.190;2023-04-01T22:45:24;3.63;;;2.85;;
66012;SDS011;52783;50.502;8.190;2023-04-01T22:48:08;7.63;;;3.60;;
66012;SDS011;52783;50.502;8.190;2023-04-01T22:50:42;5.13;;;3.17;;
66012;SDS011;52783;50.502;8.190;2023-04-01T22:54:08;5.15;;;3.22;;
66012;SDS011;52783;50.502;8.190;2023-04-01T22:56:23;3.80;;;3.40;;
66012;SDS011;52783;50.502;8.190;2023-04-01T22:59:20;3.25;;;2.95;;
66012;SDS011;52783;50.502;8.190;2023-04-01T23:01:52;2.80;;;2.58;;
66012;SDS011;52783;50.502;8.190;2023-04-01T23:04:29;3.63;;;2.80;;
66012;SDS011;52783;50.502;8.190;2023-04-01T23:06:58;3.13;;;2.78;;
66012;SDS011;52783;50.502;8.190;2023-04-01T23:09:29;3.23;;;2.60;;
66012;SDS011;52783;50.502;8.190;2023-04-01T23:11:58;3.30;;;3.00;;
66012;SDS011;52783;50.502;8.190;2023-04-01T23:14:30;8.63;;;2.90;;
66012;SDS011;52783;50.502;8.190;2023-04-01T23:17:07;3.28;;;2.78;;
66012;SDS011;52783;50.502;8.190;2023-04-01T23:25:04;3.70;;;3.00;;
66012;SDS011;52783;50.502;8.190;2023-04-01T23:27:47;3.85;;;3.22;;
66012;SDS011;52783;50.502;8.190;2023-04-01T23:33:20;5.05;;;3.85;;
66012;SDS011;52783;50.502;8.190;2023-04-01T23:36:01;3.78;;;3.38;;
66012;SDS011;52783;50.502;8.190;2023-04-01T23:41:05;4.80;;;3.30;;
66012;SDS011;52783;50.502;8.190;2023-04-01T23:43:32;3.85;;;3.50;;
66012;SDS011;52783;50.502;8.190;2023-04-01T23:46:01;3.85;;;3.13;;
66012;SDS011;52783;50.502;8.190;2023-04-01T23:48:30;6.63;;;3.78;;
66012;SDS011;52783;50.502;8.190;2023-04-01T23:51:00;4.88;;;3.58;;
66012;SDS011;52783;50.502;8.190;2023-04-01T23:53:33;7.47;;;3.40;;
66012;SDS011;52783;50.502;8.190;2023-04-01T23:55:59;5.80;;;3.90;;
66012;SDS011;52783;50.502;8.190;2023-04-01T23:58:42;7.18;;;3.50;;
